createdAt,value
2023-05-18T00:02:21.440Z,68.90
2023-05-18T00:04:48.525Z,68.64
2023-05-18T00:07:15.533Z,68.58
2023-05-18T00:09:42.463Z,68.95
2023-05-18T00:12:10.001Z,68.73
2023-05-18T00:14:37.315Z,68.75
2023-05-18T00:17:04.266Z,68.73
2023-05-18T00:19:31.548Z,69.03
2023-05-18T00:21:58.580Z,68.85
2023-05-18T00:24:25.567Z,68.85
2023-05-18T00:26:52.651Z,69.26
2023-05-18T00:29:19.738Z,68.99
2023-05-18T00:31:46.706Z,68.85
2023-05-18T00:34:15.908Z,69.34
2023-05-18T00:36:42.997Z,69.26
2023-05-18T00:39:10.202Z,69.24
2023-05-18T00:41:37.195Z,69.01
2023-05-18T00:44:05.006Z,69.13
2023-05-18T00:46:32.732Z,69.19
2023-05-18T00:49:01.982Z,69.44
2023-05-18T00:51:29.919Z,68.85
2023-05-18T00:53:57.573Z,68.84
2023-05-18T00:56:25.027Z,69.19
2023-05-18T00:58:57.192Z,69.31
2023-05-18T01:01:34.618Z,69.34
2023-05-18T01:04:04.015Z,68.99
2023-05-18T01:06:36.040Z,68.90
2023-05-18T01:09:06.916Z,69.38
2023-05-18T01:11:56.614Z,68.91
2023-05-18T01:14:50.004Z,68.67
2023-05-18T01:17:40.540Z,68.44
2023-05-18T01:20:33.526Z,68.65
2023-05-18T01:23:44.856Z,68.73
2023-05-18T01:26:29.846Z,68.58
2023-05-18T01:29:04.282Z,68.50
2023-05-18T01:31:31.497Z,68.66
2023-05-18T01:33:58.821Z,68.74
2023-05-18T01:36:25.951Z,68.37
2023-05-18T01:38:53.735Z,68.54
2023-05-18T01:41:25.681Z,68.23
2023-05-18T01:44:19.362Z,68.89
2023-05-18T01:46:55.150Z,68.40
2023-05-18T01:49:43.550Z,68.40
2023-05-18T01:52:16.854Z,68.39
2023-05-18T01:54:46.145Z,68.46
2023-05-18T01:57:13.086Z,68.60
2023-05-18T01:59:41.445Z,68.45
2023-05-18T02:02:08.854Z,68.99
2023-05-18T02:04:35.869Z,69.29
2023-05-18T02:07:03.275Z,68.99
2023-05-18T02:09:30.155Z,68.95
2023-05-18T02:11:56.998Z,68.97
2023-05-18T02:14:23.864Z,69.06
2023-05-18T02:16:53.041Z,69.23
2023-05-18T02:19:21.323Z,69.38
2023-05-18T02:21:48.389Z,69.13
2023-05-18T02:24:15.311Z,69.47
2023-05-18T02:26:42.297Z,69.18
2023-05-18T02:29:11.990Z,69.19
2023-05-18T02:31:39.219Z,69.23
2023-05-18T02:34:06.874Z,68.96
2023-05-18T02:36:37.266Z,69.27
2023-05-18T02:39:04.960Z,69.32
2023-05-18T02:41:32.425Z,69.20
2023-05-18T02:43:59.581Z,68.99
2023-05-18T02:46:26.573Z,69.32
2023-05-18T02:48:53.702Z,69.36
2023-05-18T02:51:21.698Z,69.86
2023-05-18T02:53:48.960Z,69.81
2023-05-18T02:56:17.721Z,70.30
2023-05-18T02:58:45.112Z,70.01
2023-05-18T03:01:12.369Z,69.95
2023-05-18T03:03:42.095Z,69.68
2023-05-18T03:06:09.845Z,69.69
2023-05-18T03:08:37.298Z,70.57
2023-05-18T03:11:04.608Z,70.75
2023-05-18T03:13:31.460Z,70.14
2023-05-18T03:15:58.606Z,70.11
2023-05-18T03:18:25.666Z,70.11
2023-05-18T03:20:52.723Z,70.49
2023-05-18T03:23:20.371Z,70.04
2023-05-18T03:25:47.245Z,70.36
2023-05-18T03:28:14.091Z,70.37
2023-05-18T03:30:40.941Z,70.04
2023-05-18T03:33:07.874Z,70.70
2023-05-18T03:35:34.742Z,70.74
2023-05-18T03:38:01.695Z,70.51
2023-05-18T03:40:29.252Z,70.60
2023-05-18T03:42:56.219Z,70.66
2023-05-18T03:45:23.305Z,71.07
2023-05-18T03:47:50.523Z,70.92
2023-05-18T03:50:17.419Z,70.62
2023-05-18T03:52:44.789Z,70.96
2023-05-18T03:55:12.142Z,70.81
2023-05-18T03:57:39.432Z,70.97
2023-05-18T04:00:13.166Z,71.05
2023-05-18T04:02:40.587Z,71.36
2023-05-18T04:05:08.350Z,71.25
2023-05-18T04:07:44.059Z,70.85
2023-05-18T04:10:13.097Z,71.32
2023-05-18T04:12:40.773Z,71.00
2023-05-18T04:15:08.453Z,70.80
2023-05-18T04:17:35.731Z,71.12
2023-05-18T04:20:11.535Z,70.73
2023-05-18T04:22:43.278Z,71.01
2023-05-18T04:25:13.918Z,71.07
2023-05-18T04:27:43.426Z,71.32
2023-05-18T04:30:11.838Z,70.80
2023-05-18T04:32:42.696Z,70.99
2023-05-18T04:35:11.611Z,70.33
2023-05-18T04:37:42.848Z,70.18
2023-05-18T04:40:14.170Z,69.69
2023-05-18T04:42:48.485Z,69.38
2023-05-18T04:45:20.422Z,69.05
2023-05-18T04:47:53.240Z,69.29
2023-05-18T04:50:23.639Z,69.29
2023-05-18T04:52:51.850Z,68.87
2023-05-18T04:55:28.696Z,69.00
2023-05-18T04:57:57.251Z,68.94
2023-05-18T05:00:26.229Z,68.44
2023-05-18T05:02:54.327Z,68.26
2023-05-18T05:05:22.760Z,67.78
2023-05-18T05:07:51.669Z,67.75
2023-05-18T05:10:20.677Z,67.29
2023-05-18T05:12:49.701Z,67.06
2023-05-18T05:15:17.719Z,66.76
2023-05-18T05:17:46.221Z,66.37
2023-05-18T05:20:13.121Z,65.95
2023-05-18T05:22:40.165Z,65.43
2023-05-18T05:25:08.334Z,65.41
2023-05-18T05:27:35.305Z,65.89
2023-05-18T05:30:02.618Z,65.68
2023-05-18T05:32:29.590Z,66.42
2023-05-18T05:34:56.500Z,66.22
2023-05-18T05:37:23.379Z,67.00
2023-05-18T05:39:50.217Z,67.17
2023-05-18T05:42:17.159Z,66.85
2023-05-18T05:44:44.872Z,66.79
2023-05-18T05:47:11.902Z,66.19
2023-05-18T05:49:38.814Z,65.53
2023-05-18T05:52:06.134Z,64.57
2023-05-18T05:54:33.012Z,64.95
2023-05-18T05:57:00.195Z,64.41
2023-05-18T05:59:27.200Z,64.50
2023-05-18T06:01:54.100Z,63.18
2023-05-18T06:04:21.114Z,61.50
2023-05-18T06:06:49.375Z,59.69
2023-05-18T06:09:16.401Z,59.88
2023-05-18T06:11:43.364Z,57.98
2023-05-18T06:14:10.198Z,57.99
2023-05-18T06:16:37.103Z,57.87
2023-05-18T06:19:04.125Z,56.50
2023-05-18T06:21:31.672Z,55.53
2023-05-18T06:23:58.527Z,55.22
2023-05-18T06:26:25.360Z,55.65
2023-05-18T06:28:52.209Z,56.44
2023-05-18T06:31:19.182Z,57.46
2023-05-18T06:33:46.050Z,57.61
2023-05-18T06:36:12.929Z,57.36
2023-05-18T06:38:39.789Z,56.17
2023-05-18T06:41:06.668Z,54.22
2023-05-18T06:43:33.519Z,54.97
2023-05-18T06:46:00.408Z,56.17
2023-05-18T06:48:28.612Z,57.51
2023-05-18T06:50:56.119Z,56.12
2023-05-18T06:53:23.412Z,56.74
2023-05-18T06:55:50.419Z,54.64
2023-05-18T06:58:17.323Z,55.92
2023-05-18T07:00:44.197Z,54.28
2023-05-18T07:03:11.361Z,54.48
2023-05-18T07:05:39.571Z,53.49
2023-05-18T07:08:07.226Z,52.96
2023-05-18T07:10:35.648Z,53.56
2023-05-18T07:13:02.609Z,52.17
2023-05-18T07:15:29.889Z,52.62
2023-05-18T07:17:57.154Z,52.43
2023-05-18T07:20:26.171Z,52.54
2023-05-18T07:22:55.265Z,51.07
2023-05-18T07:25:23.198Z,52.71
2023-05-18T07:27:54.459Z,52.35
2023-05-18T07:30:22.599Z,51.87
2023-05-18T07:32:51.029Z,51.90
2023-05-18T07:35:20.187Z,50.26
2023-05-18T07:37:47.064Z,49.23
2023-05-18T07:40:13.971Z,49.13
2023-05-18T07:42:41.799Z,47.40
2023-05-18T07:45:09.583Z,47.03
2023-05-18T07:47:36.560Z,47.10
2023-05-18T07:50:03.893Z,48.08
2023-05-18T07:52:30.986Z,47.45
2023-05-18T07:54:57.903Z,46.48
2023-05-18T07:57:25.320Z,44.47
2023-05-18T07:59:52.348Z,46.30
2023-05-18T08:02:19.976Z,47.15
2023-05-18T08:04:48.083Z,45.45
2023-05-18T08:07:15.070Z,44.19
2023-05-18T08:09:41.942Z,45.72
2023-05-18T08:12:09.165Z,44.34
2023-05-18T08:14:36.329Z,44.63
2023-05-18T08:17:04.782Z,43.80
2023-05-18T08:19:32.025Z,43.14
2023-05-18T08:21:59.132Z,42.31
2023-05-18T08:24:26.026Z,42.43
2023-05-18T08:26:53.151Z,42.71
2023-05-18T08:29:20.147Z,41.45
2023-05-18T08:31:49.255Z,43.40
2023-05-18T08:34:16.695Z,42.87
2023-05-18T08:36:45.627Z,42.84
2023-05-18T08:39:13.155Z,43.82
2023-05-18T08:41:55.102Z,44.57
2023-05-18T08:44:26.453Z,44.93
2023-05-18T08:46:54.808Z,45.00
2023-05-18T08:49:22.144Z,43.58
2023-05-18T08:51:57.122Z,43.33
2023-05-18T08:54:24.500Z,44.71
2023-05-18T08:56:53.672Z,44.46
2023-05-18T08:59:25.604Z,43.83
2023-05-18T09:01:54.926Z,44.32
2023-05-18T09:04:22.399Z,44.87
2023-05-18T09:06:49.867Z,44.45
2023-05-18T09:09:18.129Z,42.98
2023-05-18T09:11:47.088Z,42.39
2023-05-18T09:14:14.365Z,42.60
2023-05-18T09:16:41.478Z,42.23
2023-05-18T09:19:08.409Z,43.64
2023-05-18T09:21:35.761Z,44.17
2023-05-18T09:24:02.730Z,43.87
2023-05-18T09:26:29.694Z,43.20
2023-05-18T09:28:56.586Z,42.06
2023-05-18T09:31:24.869Z,41.49
2023-05-18T09:33:52.676Z,37.92
2023-05-18T09:36:26.090Z,39.94
2023-05-18T09:38:53.421Z,41.51
2023-05-18T09:41:20.295Z,42.68
2023-05-18T09:43:51.422Z,43.39
2023-05-18T09:46:20.620Z,44.43
2023-05-18T09:48:53.066Z,42.41
2023-05-18T09:51:21.809Z,41.75
2023-05-18T09:53:56.922Z,40.80
2023-05-18T09:56:27.369Z,41.75
2023-05-18T09:58:55.161Z,40.36
2023-05-18T10:01:22.164Z,40.04
2023-05-18T10:03:49.936Z,40.58
2023-05-18T10:06:21.069Z,40.88
2023-05-18T10:08:48.082Z,41.26
2023-05-18T10:11:19.836Z,40.59
2023-05-18T10:13:47.126Z,40.24
2023-05-18T10:16:16.720Z,40.85
2023-05-18T10:18:44.261Z,40.13
2023-05-18T10:21:14.340Z,40.82
2023-05-18T10:23:41.666Z,39.86
2023-05-18T10:26:10.039Z,40.83
2023-05-18T10:28:47.231Z,41.30
2023-05-18T10:31:16.745Z,41.05
2023-05-18T10:33:44.758Z,41.72
2023-05-18T10:36:12.087Z,42.03
2023-05-18T10:38:43.501Z,42.01
2023-05-18T10:41:12.459Z,41.35
2023-05-18T10:43:41.648Z,42.84
2023-05-18T10:46:09.673Z,41.61
2023-05-18T10:48:40.457Z,41.54
2023-05-18T10:51:08.326Z,40.47
2023-05-18T10:53:36.848Z,40.05
2023-05-18T10:56:04.106Z,40.21
2023-05-18T10:58:32.099Z,39.89
2023-05-18T11:01:06.282Z,40.40
2023-05-18T11:03:33.886Z,39.68
2023-05-18T11:06:10.319Z,39.37
2023-05-18T11:08:51.761Z,38.98
2023-05-18T11:11:26.202Z,37.81
2023-05-18T11:13:53.175Z,37.89
2023-05-18T11:16:20.949Z,38.22
2023-05-18T11:18:51.529Z,37.15
2023-05-18T11:21:22.176Z,37.35
2023-05-18T11:24:24.817Z,36.90
2023-05-18T11:27:00.314Z,36.49
2023-05-18T11:29:36.059Z,38.00
2023-05-18T11:32:04.833Z,35.75
2023-05-18T11:34:45.461Z,36.40
2023-05-18T11:37:15.005Z,38.17
2023-05-18T11:39:55.426Z,38.89
2023-05-18T11:42:34.133Z,39.46
2023-05-18T11:45:08.887Z,39.61
2023-05-18T11:47:37.010Z,38.90
2023-05-18T11:50:08.557Z,38.91
2023-05-18T11:52:51.712Z,37.65
2023-05-18T11:55:21.036Z,36.54
2023-05-18T11:57:52.403Z,37.14
2023-05-18T12:00:21.016Z,36.88
2023-05-18T12:02:49.255Z,37.93
2023-05-18T12:05:17.161Z,38.29
2023-05-18T12:07:45.086Z,38.18
2023-05-18T12:10:17.468Z,38.53
2023-05-18T12:12:48.300Z,39.06
2023-05-18T12:15:17.181Z,39.72
2023-05-18T12:17:47.283Z,39.30
2023-05-18T12:20:27.266Z,40.18
2023-05-18T12:22:55.965Z,40.04
2023-05-18T12:25:25.887Z,40.07
2023-05-18T12:27:54.385Z,39.34
2023-05-18T12:30:34.457Z,39.80
2023-05-18T12:33:02.526Z,41.08
2023-05-18T12:35:31.496Z,41.03
2023-05-18T12:38:03.153Z,40.87
2023-05-18T12:40:44.475Z,40.94
2023-05-18T12:43:11.847Z,40.98
2023-05-18T12:45:38.886Z,41.50
2023-05-18T12:48:11.124Z,41.58
2023-05-18T12:50:53.068Z,41.62
2023-05-18T12:53:20.048Z,41.67
2023-05-18T12:55:59.768Z,41.56
2023-05-18T12:58:26.705Z,40.61
2023-05-18T13:00:53.629Z,40.34
2023-05-18T13:03:22.015Z,40.12
2023-05-18T13:06:07.025Z,40.31
2023-05-18T13:08:36.137Z,40.15
2023-05-18T13:11:14.444Z,40.47
2023-05-18T13:14:14.323Z,40.84
2023-05-18T13:16:45.637Z,41.56
2023-05-18T13:19:18.988Z,42.06
2023-05-18T13:21:47.087Z,42.56
2023-05-18T13:24:14.490Z,42.11
2023-05-18T13:26:41.472Z,41.60
2023-05-18T13:29:08.683Z,40.99
2023-05-18T13:31:36.020Z,39.71
2023-05-18T13:34:03.652Z,39.87
2023-05-18T13:36:33.632Z,39.74
2023-05-18T13:39:01.455Z,40.18
2023-05-18T13:41:28.358Z,40.99
2023-05-18T13:43:55.357Z,39.48
2023-05-18T13:46:22.316Z,40.22
2023-05-18T13:48:49.205Z,39.84
2023-05-18T13:51:16.266Z,39.26
2023-05-18T13:53:43.232Z,38.32
2023-05-18T13:56:10.082Z,37.70
2023-05-18T13:58:36.987Z,38.80
2023-05-18T14:01:07.985Z,38.08
2023-05-18T14:03:36.551Z,38.76
2023-05-18T14:06:03.844Z,39.93
2023-05-18T14:08:30.678Z,39.56
2023-05-18T14:10:57.540Z,40.47
2023-05-18T14:13:24.397Z,41.08
2023-05-18T14:15:51.483Z,41.52
2023-05-18T14:18:18.430Z,40.77
2023-05-18T14:20:47.466Z,41.77
2023-05-18T14:23:14.496Z,41.23
2023-05-18T14:25:43.534Z,41.32
2023-05-18T14:28:10.413Z,41.34
2023-05-18T14:30:37.439Z,41.85
2023-05-18T14:33:04.600Z,41.73
2023-05-18T14:35:31.617Z,41.88
2023-05-18T14:37:58.501Z,42.50
2023-05-18T14:40:25.457Z,42.12
2023-05-18T14:42:53.780Z,40.73
2023-05-18T14:45:21.156Z,39.90
2023-05-18T14:47:48.224Z,39.88
2023-05-18T14:50:15.306Z,40.02
2023-05-18T14:52:42.142Z,40.29
2023-05-18T14:55:09.574Z,41.07
2023-05-18T14:57:36.475Z,42.27
2023-05-18T15:00:04.430Z,42.02
2023-05-18T15:02:31.376Z,42.44
2023-05-18T15:04:58.333Z,42.70
2023-05-18T15:07:25.206Z,44.42
2023-05-18T15:09:52.145Z,44.40
2023-05-18T15:12:19.662Z,44.02
2023-05-18T15:14:46.611Z,43.23
2023-05-18T15:17:14.967Z,43.21
2023-05-18T15:19:41.924Z,44.89
2023-05-18T15:22:09.009Z,44.45
2023-05-18T15:24:35.943Z,44.48
2023-05-18T15:27:03.472Z,44.24
2023-05-18T15:29:30.492Z,43.56
2023-05-18T15:31:57.398Z,44.01
2023-05-18T15:34:24.302Z,44.40
2023-05-18T15:36:53.336Z,44.53
2023-05-18T15:39:20.753Z,44.47
2023-05-18T15:41:47.631Z,45.43
2023-05-18T15:44:14.549Z,45.60
2023-05-18T15:46:41.422Z,44.50
2023-05-18T15:49:08.332Z,44.21
2023-05-18T15:51:35.233Z,44.66
2023-05-18T15:54:02.079Z,44.63
2023-05-18T15:56:28.962Z,44.53
2023-05-18T15:58:55.894Z,44.69
2023-05-18T16:01:22.882Z,45.01
2023-05-18T16:03:49.846Z,45.71
2023-05-18T16:06:18.459Z,45.22
2023-05-18T16:08:46.090Z,45.39
2023-05-18T16:11:13.053Z,45.85
2023-05-18T16:13:39.916Z,47.31
2023-05-18T16:16:08.843Z,46.91
2023-05-18T16:18:36.577Z,46.24
2023-05-18T16:21:03.634Z,45.96
2023-05-18T16:23:30.510Z,47.25
2023-05-18T16:25:57.587Z,46.38
2023-05-18T16:28:24.456Z,46.39
2023-05-18T16:30:51.313Z,46.48
2023-05-18T16:33:18.210Z,46.57
2023-05-18T16:35:45.111Z,46.89
2023-05-18T16:38:13.236Z,47.24
2023-05-18T16:40:40.203Z,46.90
2023-05-18T16:43:07.064Z,47.29
2023-05-18T16:45:33.998Z,47.17
2023-05-18T16:48:03.593Z,48.66
2023-05-18T16:50:31.620Z,47.93
2023-05-18T16:52:58.715Z,47.67
2023-05-18T16:55:25.817Z,49.00
2023-05-18T16:57:53.050Z,47.89
2023-05-18T17:00:20.755Z,48.49
2023-05-18T17:02:47.839Z,48.11
2023-05-18T17:05:17.122Z,48.57
2023-05-18T17:07:44.063Z,48.76
2023-05-18T17:10:11.131Z,48.81
2023-05-18T17:12:38.449Z,48.79
2023-05-18T17:15:06.020Z,49.04
2023-05-18T17:17:32.958Z,48.85
2023-05-18T17:19:59.864Z,48.65
2023-05-18T17:22:26.740Z,48.62
2023-05-18T17:24:53.751Z,49.18
2023-05-18T17:27:21.481Z,48.96
2023-05-18T17:29:48.314Z,48.97
2023-05-18T17:32:15.531Z,49.38
2023-05-18T17:34:42.401Z,49.83
2023-05-18T17:37:09.352Z,49.82
2023-05-18T17:39:36.200Z,50.26
2023-05-18T17:42:03.309Z,51.17
2023-05-18T17:44:30.274Z,50.51
2023-05-18T17:46:57.985Z,50.26
2023-05-18T17:49:24.968Z,50.86
2023-05-18T17:51:52.382Z,50.51
2023-05-18T17:54:19.255Z,51.03
2023-05-18T17:56:46.582Z,50.62
2023-05-18T17:59:13.616Z,50.72
2023-05-18T18:01:40.871Z,50.55
2023-05-18T18:04:07.786Z,51.53
2023-05-18T18:06:35.691Z,51.43
2023-05-18T18:09:04.646Z,51.99
2023-05-18T18:11:31.700Z,51.45
2023-05-18T18:13:58.658Z,52.53
2023-05-18T18:16:25.689Z,52.63
2023-05-18T18:18:52.759Z,51.89
2023-05-18T18:21:19.711Z,51.83
2023-05-18T18:23:46.621Z,51.85
2023-05-18T18:26:13.488Z,52.39
2023-05-18T18:28:40.466Z,52.47
2023-05-18T18:31:08.233Z,52.33
2023-05-18T18:33:35.392Z,52.73
2023-05-18T18:36:04.366Z,52.77
2023-05-18T18:38:33.799Z,53.06
2023-05-18T18:41:04.102Z,53.48
2023-05-18T18:43:31.390Z,53.72
2023-05-18T18:45:59.151Z,54.55
2023-05-18T18:48:26.229Z,53.65
2023-05-18T18:50:53.717Z,53.20
2023-05-18T18:53:20.619Z,53.30
2023-05-18T18:55:47.563Z,53.52
2023-05-18T18:58:14.457Z,52.76
2023-05-18T19:00:41.496Z,52.90
2023-05-18T19:03:09.909Z,53.04
2023-05-18T19:05:37.413Z,52.71
2023-05-18T19:08:04.412Z,52.83
2023-05-18T19:10:32.857Z,53.08
2023-05-18T19:13:04.909Z,52.58
2023-05-18T19:15:33.870Z,53.19
2023-05-18T19:18:01.192Z,52.84
2023-05-18T19:20:28.382Z,53.55
2023-05-18T19:22:55.381Z,53.02
2023-05-18T19:25:24.521Z,52.82
2023-05-18T19:27:53.115Z,51.99
2023-05-18T19:30:21.576Z,52.91
2023-05-18T19:32:53.289Z,52.62
2023-05-18T19:35:21.799Z,52.40
2023-05-18T19:37:48.724Z,52.90
2023-05-18T19:40:16.702Z,52.42
2023-05-18T19:42:43.970Z,52.80
2023-05-18T19:45:10.862Z,53.25
2023-05-18T19:47:37.809Z,53.15
2023-05-18T19:50:06.159Z,53.51
2023-05-18T19:52:33.511Z,53.30
2023-05-18T19:55:00.556Z,53.59
2023-05-18T19:57:27.548Z,53.92
2023-05-18T19:59:54.441Z,54.39
2023-05-18T20:02:21.381Z,54.09
2023-05-18T20:04:48.445Z,54.25
2023-05-18T20:07:15.350Z,54.90
2023-05-18T20:09:42.216Z,54.60
2023-05-18T20:12:09.120Z,54.71
2023-05-18T20:14:36.717Z,55.27
2023-05-18T20:17:04.658Z,55.72
2023-05-18T20:19:32.440Z,55.69
2023-05-18T20:21:59.419Z,55.98
2023-05-18T20:24:26.290Z,57.17
2023-05-18T20:26:53.782Z,56.05
2023-05-18T20:29:20.669Z,56.33
2023-05-18T20:31:47.782Z,55.93
2023-05-18T20:34:14.783Z,56.60
2023-05-18T20:36:41.629Z,56.99
2023-05-18T20:39:08.988Z,56.29
2023-05-18T20:41:39.930Z,57.01
2023-05-18T20:44:10.548Z,56.46
2023-05-18T20:46:38.369Z,56.29
2023-05-18T20:49:05.568Z,56.49
2023-05-18T20:51:32.482Z,56.22
2023-05-18T20:53:59.332Z,56.32
2023-05-18T20:56:26.726Z,55.94
2023-05-18T20:58:54.467Z,55.76
2023-05-18T21:01:23.913Z,56.66
2023-05-18T21:03:50.902Z,56.32
2023-05-18T21:06:17.901Z,56.60
2023-05-18T21:08:45.634Z,56.84
2023-05-18T21:11:12.583Z,57.05
2023-05-18T21:13:39.526Z,57.18
2023-05-18T21:16:08.349Z,57.62
2023-05-18T21:18:35.964Z,57.76
2023-05-18T21:21:03.537Z,57.52
2023-05-18T21:23:30.807Z,57.94
2023-05-18T21:25:58.093Z,58.18
2023-05-18T21:28:25.040Z,58.56
2023-05-18T21:30:52.537Z,58.58
2023-05-18T21:33:19.811Z,58.96
2023-05-18T21:35:46.876Z,59.22
2023-05-18T21:38:13.886Z,59.80
2023-05-18T21:40:43.529Z,59.36
2023-05-18T21:43:10.968Z,58.94
2023-05-18T21:45:38.605Z,58.92
2023-05-18T21:48:06.216Z,58.22
2023-05-18T21:50:34.899Z,58.08
2023-05-18T21:53:05.682Z,58.10
2023-05-18T21:55:32.940Z,57.87
2023-05-18T21:58:00.159Z,58.14
2023-05-18T22:00:27.232Z,58.16
2023-05-18T22:02:54.462Z,57.71
2023-05-18T22:05:21.490Z,58.18
2023-05-18T22:07:49.171Z,58.07
2023-05-18T22:10:18.001Z,58.48
2023-05-18T22:12:45.175Z,58.70
2023-05-18T22:15:12.499Z,59.42
2023-05-18T22:17:39.488Z,59.29
2023-05-18T22:20:09.391Z,58.66
2023-05-18T22:22:36.377Z,58.73
2023-05-18T22:25:03.486Z,59.38
2023-05-18T22:27:30.465Z,59.13
2023-05-18T22:29:57.492Z,59.28
2023-05-18T22:32:24.802Z,59.51
2023-05-18T22:34:52.063Z,59.87
2023-05-18T22:37:18.977Z,60.29
2023-05-18T22:39:46.033Z,60.24
2023-05-18T22:42:12.887Z,60.00
2023-05-18T22:44:39.771Z,60.30
2023-05-18T22:47:06.815Z,60.49
2023-05-18T22:49:35.846Z,61.27
2023-05-18T22:52:06.520Z,61.01
2023-05-18T22:54:33.510Z,61.87
2023-05-18T22:57:00.402Z,61.71
2023-05-18T22:59:28.681Z,62.23
2023-05-18T23:01:55.742Z,62.32
2023-05-18T23:04:22.703Z,63.17
2023-05-18T23:06:50.788Z,64.05
2023-05-18T23:09:18.715Z,63.51
2023-05-18T23:11:46.341Z,63.83
2023-05-18T23:14:14.175Z,64.07
2023-05-18T23:16:43.070Z,63.59
2023-05-18T23:19:12.319Z,63.98
2023-05-18T23:21:42.649Z,64.35
2023-05-18T23:24:12.048Z,64.15
2023-05-18T23:26:42.766Z,64.58
2023-05-18T23:29:09.914Z,65.05
2023-05-18T23:31:37.623Z,64.93
2023-05-18T23:34:04.851Z,64.37
2023-05-18T23:36:35.489Z,64.53
2023-05-18T23:39:03.612Z,64.03
2023-05-18T23:41:31.938Z,64.36
2023-05-18T23:43:59.601Z,64.25
2023-05-18T23:46:26.852Z,64.13
2023-05-18T23:48:54.121Z,63.94
2023-05-18T23:51:21.599Z,64.46
2023-05-18T23:53:50.730Z,64.03
2023-05-18T23:56:18.395Z,63.87
2023-05-18T23:58:46.933Z,64.21
